Meteo Giornale » Osservazioni meteo Egitto » Cairo

ore: 03:30 - Osservazioni Meteo Cairo
Lat. 30° 8' N Lon. 31° 24' E Alt. 64 metri s.l.m.

sereno Africa/Cairo

26 °C

Sereno

Temp. 24 Ore

25 °C

34 °C

Est

13 Km/h

Dew point 19 °C

Umidità 65 %

Visibilità  10 Km

Il sole sorge alle ore 05:51

Il sole tramonta alle ore 19:59

Data e Ora Cielo e Fenomeni T °C DP °C Um. % Pres. hPa Vis. km Vento km/h
Oggi h: 03:30 sereno Sereno 26 19 65 1009 10 E 13
Oggi h: 03:00 sereno Sereno 26 19 65 1009 10 E/NE 13
Oggi h: 02:30 sereno Sereno 26 19 65 1009 10 E/NE 14.8
Oggi h: 02:00 sereno Sereno 26 19 65 1009 10 NE 14.8
Oggi h: 01:30 sereno Sereno 26 19 65 1009 10 NE 14.8
Oggi h: 01:00 sereno Sereno 26 19 65 1009 10 NE 18.5
Oggi h: 00:30 sereno Sereno 27 20 65 1010 10 E/NE 18.5
Oggi h: 00:00 sereno Sereno 27 20 65 1010 10 E/NE 20.3
Ieri h: 23:30 sereno Sereno 27 20 65 1010 10 NE 18.5
Ieri h: 23:00 sereno Sereno 27 20 65 1010 10 NE 24
Ieri h: 22:30 sereno Sereno 28 20 61 1010 10 NE 24
Ieri h: 22:00 sereno Sereno 29 20 58 1010 10 N/NE 22.2
Ieri h: 21:30 sereno Sereno 29 20 58 1009 10 NE 22.2
Ieri h: 21:00 sereno Sereno 31 17 43 1009 10 N 18.5
Ieri h: 20:30 poco_nuvoloso Poco Nuvoloso 31 16 40 1009 10 N 20.3
Ieri h: 20:00 poco_nuvoloso Poco Nuvoloso 32 16 38 1008 10 N 18.5
Ieri h: 19:30 poco_nuvoloso Poco Nuvoloso 32 15 35 1008 10 N 18.5
Ieri h: 19:00 poco_nuvoloso Poco Nuvoloso 33 16 36 1008 10 N 20.3
Ieri h: 18:30 poco_nuvoloso Poco Nuvoloso 33 15 33 1008 10 N/NO 18.5
Ieri h: 18:00 poco_nuvoloso Poco Nuvoloso 34 14 30 1008 10 N/NO 13
Ieri h: 17:30 poco_nuvoloso Poco Nuvoloso 34 14 30 1008 10 N 16.7
Ieri h: 17:00 poco_nuvoloso Poco Nuvoloso 34 14 30 1008 10 N 16.7
Ieri h: 16:00 sereno Sereno 34 14 30 1009 10 N/NO 16.7
Ieri h: 15:30 sereno Sereno 34 14 30 1009 10 O/NO 11.1
Ieri h: 15:00 sereno Sereno 34 14 30 1009 10 O/NO 11.1
Ieri h: 14:30 sereno Sereno 33 15 33 1009 10 N 14.8
Ieri h: 14:00 sereno Sereno 33 15 33 1009 10 NO 7.4
Ieri h: 13:30 sereno Sereno 33 14 31 1009 10 O/NO 11.1
Ieri h: 13:00 sereno Sereno 33 16 36 1009 10 N 14.8
Ieri h: 12:30 sereno Sereno 33 14 31 1010 10 N/NO 14.8
Ieri h: 12:00 sereno Sereno 33 14 31 1010 10 N/NO 14.8
Ieri h: 11:30 sereno Sereno 32 14 33 1010 10 N 11.1
Ieri h: 11:00 sereno Sereno 31 14 35 1010 10 N 11.1
Ieri h: 10:30 sereno Sereno 31 13 33 1010 10 N 7.4
Ieri h: 10:00 sereno Sereno 30 17 45 1010 10 N 7.4
Ieri h: 09:30 sereno Sereno 30 17 45 1010 10 N 7.4
Ieri h: 09:00 sereno Sereno 29 17 48 1010 10 E/NE 9.3
Ieri h: 08:30 sereno Sereno 28 17 51 1010 10 E/NE 11.1
Ieri h: 08:00 sereno Sereno 27 19 61 1010 10 E 14.8
Ieri h: 07:30 sereno Sereno 27 19 61 1010 10 E 14.8
Ieri h: 07:00 sereno Sereno 26 20 69 1010 10 NE 9.3
Ieri h: 06:30 sereno Sereno 25 21 78 1010 10 E/NE 7.4
Ieri h: 06:00 sereno Sereno 25 21 78 1010 10 NE 11.1
Ieri h: 05:30 sereno Sereno 25 21 78 1010 10 NE 11.1
Ieri h: 05:00 sereno Sereno 25 21 78 1010 10 NE 11.1